<?xml version="1.0" encoding="UTF-8"?>
<gpx version="1.1" creator="2bulu-scraper" xmlns="http://www.topografix.com/GPX/1/1">
  <metadata><name>自贡富顺五条沟</name><desc>source: 2bulu.com trackId=77001972; exported 2026-09-01T14:57:36.631Z</desc>
    <bounds minlat="29.0020862" minlon="104.7701706" maxlat="29.0188136" maxlon="104.7850793"/>
    <link href="https://www.2bulu.com/track/t-3XYCEMZKPZvp%252FR2KBg5Tzw%253D%253D.htm"><text>2bulu 源页面</text></link>
  </metadata>
  <wpt lat="29.014339" lon="104.7735027"><ele>255</ele><name>
        </name></wpt>
  <wpt lat="29.014339" lon="104.7735027"><ele>255</ele><name>
        </name></wpt>
  <wpt lat="29.0103798" lon="104.7724606"><ele>258</ele><name>
        </name></wpt>
  <wpt lat="29.0091668" lon="104.7730215"><ele>264</ele><name>
        </name></wpt>
  <wpt lat="29.0069333" lon="104.7701706"><ele>266</ele><name>
        </name></wpt>
  <wpt lat="29.0059943" lon="104.7703548"><ele>258</ele><name>
        </name></wpt>
  <wpt lat="29.0055397" lon="104.7707467"><ele>266</ele><name>
        </name></wpt>
  <wpt lat="29.0052279" lon="104.7707458"><ele>285</ele><name>
        </name></wpt>
  <wpt lat="29.0052279" lon="104.7707458"><ele>285</ele><name>
        </name></wpt>
  <wpt lat="29.0048461" lon="104.7713645"><ele>303</ele><name>
        </name></wpt>
  <wpt lat="29.0049751" lon="104.771606"><ele>308</ele><name>
        </name></wpt>
  <wpt lat="29.0049005" lon="104.7716811"><ele>316</ele><name>
        </name></wpt>
  <wpt lat="29.0049076" lon="104.771954"><ele>331</ele><name>
        </name></wpt>
  <wpt lat="29.0049297" lon="104.7724609"><ele>355</ele><name>
        </name></wpt>
  <wpt lat="29.0045618" lon="104.7728171"><ele>357</ele><name>
        </name></wpt>
  <wpt lat="29.0049168" lon="104.7736629"><ele>361</ele><name>
        </name></wpt>
  <wpt lat="29.0047465" lon="104.774142"><ele>352</ele><name>
        </name></wpt>
  <wpt lat="29.0051092" lon="104.7750231"><ele>352</ele><name>
        </name></wpt>
  <wpt lat="29.0052263" lon="104.7753428"><ele>346</ele><name>
        </name></wpt>
  <wpt lat="29.0051208" lon="104.7756854"><ele>349</ele><name>
        </name></wpt>
  <wpt lat="29.0049825" lon="104.7766344"><ele>352</ele><name>
        </name></wpt>
  <wpt lat="29.0046592" lon="104.7772372"><ele>347</ele><name>
        </name></wpt>
  <wpt lat="29.004541" lon="104.7775538"><ele>338</ele><name>
        </name></wpt>
  <wpt lat="29.0046044" lon="104.778103"><ele>312</ele><name>
        </name></wpt>
  <wpt lat="29.0046474" lon="104.7781928"><ele>306</ele><name>
        </name></wpt>
  <wpt lat="29.0032669" lon="104.7788824"><ele>290</ele><name>
        </name></wpt>
  <wpt lat="29.004812" lon="104.7806232"><ele>309</ele><name>
        </name></wpt>
  <wpt lat="29.0052432" lon="104.7804239"><ele>305</ele><name>
        </name></wpt>
  <wpt lat="29.0050264" lon="104.7824044"><ele>308</ele><name>
        </name></wpt>
  <wpt lat="29.0046132" lon="104.7824542"><ele>304</ele><name>
        </name></wpt>
  <wpt lat="29.0044405" lon="104.7824184"><ele>302</ele><name>
        </name></wpt>
  <wpt lat="29.0043235" lon="104.7828343"><ele>302</ele><name>
        </name></wpt>
  <wpt lat="29.004338" lon="104.7833242"><ele>307</ele><name>
        </name></wpt>
  <wpt lat="29.0043273" lon="104.7840185"><ele>316</ele><name>
        </name></wpt>
  <wpt lat="29.0045996" lon="104.7843171"><ele>326</ele><name>
        </name></wpt>
  <wpt lat="29.0047664" lon="104.7841381"><ele>332</ele><name>
        </name></wpt>
  <wpt lat="29.0051515" lon="104.7838706"><ele>340</ele><name>
        </name></wpt>
  <wpt lat="29.0065916" lon="104.7842538"><ele>353</ele><name>
        </name></wpt>
  <wpt lat="29.0069505" lon="104.7845891"><ele>356</ele><name>
        </name></wpt>
  <wpt lat="29.0069505" lon="104.7845891"><ele>356</ele><name>
        </name></wpt>
  <wpt lat="29.0075065" lon="104.7846857"><ele>356</ele><name>
        </name></wpt>
  <wpt lat="29.0075065" lon="104.7846857"><ele>356</ele><name>停车🅿️上厕所
        </name></wpt>
  <trk><name>自贡富顺五条沟</name>
      <trkseg>
        <trkpt lat="29.007311" lon="104.7850793"><ele>358.99</ele><time>2025-12-30T18:06:49.000Z</time></trkpt>
        <trkpt lat="29.007622" lon="104.7846705"><ele>358.99</ele><time>2025-12-30T18:06:55.000Z</time></trkpt>
        <trkpt lat="29.007622" lon="104.7846705"><ele>358.99</ele><time>2025-12-30T18:06:58.000Z</time></trkpt>
        <trkpt lat="29.007622" lon="104.7846705"><ele>358.99</ele><time>2025-12-30T18:11:42.000Z</time></trkpt>
        <trkpt lat="29.007622" lon="104.7846705"><ele>358.99</ele><time>2025-12-30T18:12:18.000Z</time></trkpt>
        <trkpt lat="29.007622" lon="104.7846705"><ele>358.99</ele><time>2025-12-30T18:17:36.000Z</time></trkpt>
        <trkpt lat="29.007622" lon="104.7846705"><ele>358.99</ele><time>2025-12-30T18:18:20.000Z</time></trkpt>
        <trkpt lat="29.0076942" lon="104.783741"><ele>359.37</ele><time>2025-12-30T18:20:20.000Z</time></trkpt>
        <trkpt lat="29.0076942" lon="104.783741"><ele>359.37</ele><time>2025-12-30T18:21:55.000Z</time></trkpt>
        <trkpt lat="29.007856" lon="104.7832554"><ele>363.48</ele><time>2025-12-30T18:22:49.000Z</time></trkpt>
        <trkpt lat="29.0079875" lon="104.7827615"><ele>365.47</ele><time>2025-12-30T18:23:43.000Z</time></trkpt>
        <trkpt lat="29.0081427" lon="104.7822762"><ele>364.42</ele><time>2025-12-30T18:24:35.000Z</time></trkpt>
        <trkpt lat="29.0083544" lon="104.7818228"><ele>364.1</ele><time>2025-12-30T18:25:21.000Z</time></trkpt>
        <trkpt lat="29.0086228" lon="104.7813987"><ele>364.26</ele><time>2025-12-30T18:26:11.000Z</time></trkpt>
        <trkpt lat="29.0088897" lon="104.7809597"><ele>362.9</ele><time>2025-12-30T18:26:57.000Z</time></trkpt>
        <trkpt lat="29.0089959" lon="104.7808188"><ele>359.22</ele><time>2025-12-30T18:27:07.000Z</time></trkpt>
        <trkpt lat="29.009353" lon="104.7806726"><ele>357.01</ele><time>2025-12-30T18:28:07.000Z</time></trkpt>
        <trkpt lat="29.0092031" lon="104.7801795"><ele>352.37</ele><time>2025-12-30T18:29:03.000Z</time></trkpt>
        <trkpt lat="29.009014" lon="104.7797135"><ele>354.08</ele><time>2025-12-30T18:30:11.000Z</time></trkpt>
        <trkpt lat="29.0086267" lon="104.7794304"><ele>355.85</ele><time>2025-12-30T18:30:55.000Z</time></trkpt>
        <trkpt lat="29.0083392" lon="104.7790285"><ele>354.19</ele><time>2025-12-30T18:31:41.000Z</time></trkpt>
        <trkpt lat="29.008047" lon="104.7786324"><ele>352.09</ele><time>2025-12-30T18:32:25.000Z</time></trkpt>
        <trkpt lat="29.0079206" lon="104.7781389"><ele>349.95</ele><time>2025-12-30T18:33:19.000Z</time></trkpt>
        <trkpt lat="29.0078927" lon="104.7776168"><ele>344.01</ele><time>2025-12-30T18:34:11.000Z</time></trkpt>
        <trkpt lat="29.0077588" lon="104.7771158"><ele>337.07</ele><time>2025-12-30T18:37:03.000Z</time></trkpt>
        <trkpt lat="29.0077588" lon="104.7771158"><ele>337.07</ele><time>2025-12-30T18:37:56.000Z</time></trkpt>
        <trkpt lat="29.0073919" lon="104.7769312"><ele>329.99</ele><time>2025-12-30T18:37:58.000Z</time></trkpt>
        <trkpt lat="29.0073919" lon="104.7769312"><ele>329.99</ele><time>2025-12-30T18:38:01.000Z</time></trkpt>
        <trkpt lat="29.0073919" lon="104.7769312"><ele>329.99</ele><time>2025-12-30T18:38:14.000Z</time></trkpt>
        <trkpt lat="29.0073919" lon="104.7769312"><ele>329.99</ele><time>2025-12-30T18:38:20.000Z</time></trkpt>
        <trkpt lat="29.0073919" lon="104.7769312"><ele>329.99</ele><time>2025-12-30T18:38:54.000Z</time></trkpt>
        <trkpt lat="29.0070213" lon="104.7766234"><ele>322.02</ele><time>2025-12-30T18:39:32.000Z</time></trkpt>
        <trkpt lat="29.0070213" lon="104.7766234"><ele>322.02</ele><time>2025-12-30T18:41:13.000Z</time></trkpt>
        <trkpt lat="29.0070057" lon="104.776628"><ele>315.8</ele><time>2025-12-30T18:41:17.000Z</time></trkpt>
        <trkpt lat="29.0070057" lon="104.776628"><ele>315.8</ele><time>2025-12-30T18:41:28.000Z</time></trkpt>
        <trkpt lat="29.0065986" lon="104.7763888"><ele>312.01</ele><time>2025-12-30T18:41:30.000Z</time></trkpt>
        <trkpt lat="29.0065986" lon="104.7763888"><ele>312.01</ele><time>2025-12-30T18:43:13.000Z</time></trkpt>
        <trkpt lat="29.0065929" lon="104.7758744"><ele>300.57</ele><time>2025-12-30T18:44:39.000Z</time></trkpt>
        <trkpt lat="29.0065929" lon="104.7758744"><ele>300.57</ele><time>2025-12-30T18:45:38.000Z</time></trkpt>
        <trkpt lat="29.0065929" lon="104.7758744"><ele>300.57</ele><time>2025-12-30T18:45:40.000Z</time></trkpt>
        <trkpt lat="29.0065929" lon="104.7758744"><ele>300.57</ele><time>2025-12-30T18:45:54.000Z</time></trkpt>
        <trkpt lat="29.0067233" lon="104.775383"><ele>291.82</ele><time>2025-12-30T18:46:00.000Z</time></trkpt>
        <trkpt lat="29.0067233" lon="104.775383"><ele>291.82</ele><time>2025-12-30T18:47:13.000Z</time></trkpt>
        <trkpt lat="29.0070346" lon="104.7750004"><ele>287.21</ele><time>2025-12-30T18:48:39.000Z</time></trkpt>
        <trkpt lat="29.0070346" lon="104.7750004"><ele>287.21</ele><time>2025-12-30T18:50:24.000Z</time></trkpt>
        <trkpt lat="29.0070346" lon="104.7750004"><ele>287.21</ele><time>2025-12-30T18:50:26.000Z</time></trkpt>
        <trkpt lat="29.0070346" lon="104.7750004"><ele>287.21</ele><time>2025-12-30T18:52:12.000Z</time></trkpt>
        <trkpt lat="29.0070346" lon="104.7750004"><ele>287.21</ele><time>2025-12-30T18:52:14.000Z</time></trkpt>
        <trkpt lat="29.0070346" lon="104.7750004"><ele>287.21</ele><time>2025-12-30T18:52:38.000Z</time></trkpt>
        <trkpt lat="29.0070346" lon="104.7750004"><ele>287.21</ele><time>2025-12-30T18:53:32.000Z</time></trkpt>
        <trkpt lat="29.0070346" lon="104.7750004"><ele>287.21</ele><time>2025-12-30T18:54:00.000Z</time></trkpt>
        <trkpt lat="29.0070346" lon="104.7750004"><ele>287.21</ele><time>2025-12-30T18:55:04.000Z</time></trkpt>
        <trkpt lat="29.0070346" lon="104.7750004"><ele>287.21</ele><time>2025-12-30T18:55:20.000Z</time></trkpt>
        <trkpt lat="29.0070346" lon="104.7750004"><ele>287.21</ele><time>2025-12-30T18:55:48.000Z</time></trkpt>
        <trkpt lat="29.0070346" lon="104.7750004"><ele>287.21</ele><time>2025-12-30T18:56:04.000Z</time></trkpt>
        <trkpt lat="29.0070346" lon="104.7750004"><ele>287.21</ele><time>2025-12-30T18:56:36.000Z</time></trkpt>
        <trkpt lat="29.0070346" lon="104.7750004"><ele>287.21</ele><time>2025-12-30T18:57:14.000Z</time></trkpt>
        <trkpt lat="29.0070346" lon="104.7750004"><ele>287.21</ele><time>2025-12-30T18:57:44.000Z</time></trkpt>
        <trkpt lat="29.0070346" lon="104.7750004"><ele>287.21</ele><time>2025-12-30T18:58:00.000Z</time></trkpt>
        <trkpt lat="29.0070346" lon="104.7750004"><ele>287.21</ele><time>2025-12-30T18:58:06.000Z</time></trkpt>
        <trkpt lat="29.0070346" lon="104.7750004"><ele>287.21</ele><time>2025-12-30T18:59:06.000Z</time></trkpt>
        <trkpt lat="29.0074376" lon="104.7747735"><ele>285.45</ele><time>2025-12-30T18:59:20.000Z</time></trkpt>
        <trkpt lat="29.0074376" lon="104.7747735"><ele>285.45</ele><time>2025-12-30T18:59:57.000Z</time></trkpt>
        <trkpt lat="29.0074376" lon="104.7747735"><ele>285.45</ele><time>2025-12-30T19:00:50.000Z</time></trkpt>
        <trkpt lat="29.0074376" lon="104.7747735"><ele>285.45</ele><time>2025-12-30T19:00:56.000Z</time></trkpt>
        <trkpt lat="29.0074376" lon="104.7747735"><ele>285.45</ele><time>2025-12-30T19:01:56.000Z</time></trkpt>
        <trkpt lat="29.0074376" lon="104.7747735"><ele>285.45</ele><time>2025-12-30T19:02:10.000Z</time></trkpt>
        <trkpt lat="29.0074376" lon="104.7747735"><ele>285.45</ele><time>2025-12-30T19:02:26.000Z</time></trkpt>
        <trkpt lat="29.0074376" lon="104.7747735"><ele>285.45</ele><time>2025-12-30T19:03:04.000Z</time></trkpt>
        <trkpt lat="29.0074376" lon="104.7747735"><ele>285.45</ele><time>2025-12-30T19:03:32.000Z</time></trkpt>
        <trkpt lat="29.0078127" lon="104.7744791"><ele>287.11</ele><time>2025-12-30T19:03:44.000Z</time></trkpt>
        <trkpt lat="29.0078127" lon="104.7744791"><ele>287.11</ele><time>2025-12-30T19:04:55.000Z</time></trkpt>
        <trkpt lat="29.0078127" lon="104.7744791"><ele>287.11</ele><time>2025-12-30T19:06:10.000Z</time></trkpt>
        <trkpt lat="29.0078127" lon="104.7744791"><ele>287.11</ele><time>2025-12-30T19:06:30.000Z</time></trkpt>
        <trkpt lat="29.0078127" lon="104.7744791"><ele>287.11</ele><time>2025-12-30T19:07:34.000Z</time></trkpt>
        <trkpt lat="29.0078127" lon="104.7744791"><ele>287.11</ele><time>2025-12-30T19:07:50.000Z</time></trkpt>
        <trkpt lat="29.0078127" lon="104.7744791"><ele>287.11</ele><time>2025-12-30T19:08:08.000Z</time></trkpt>
        <trkpt lat="29.0078127" lon="104.7744791"><ele>287.11</ele><time>2025-12-30T19:10:44.000Z</time></trkpt>
        <trkpt lat="29.0078127" lon="104.7744791"><ele>287.11</ele><time>2025-12-30T19:10:58.000Z</time></trkpt>
        <trkpt lat="29.0078127" lon="104.7744791"><ele>287.11</ele><time>2025-12-30T19:11:38.000Z</time></trkpt>
        <trkpt lat="29.0078127" lon="104.7744791"><ele>287.11</ele><time>2025-12-30T19:12:18.000Z</time></trkpt>
        <trkpt lat="29.0078127" lon="104.7744791"><ele>287.11</ele><time>2025-12-30T19:13:04.000Z</time></trkpt>
        <trkpt lat="29.0078127" lon="104.7744791"><ele>287.11</ele><time>2025-12-30T19:14:10.000Z</time></trkpt>
        <trkpt lat="29.0082286" lon="104.7742614"><ele>289.57</ele><time>2025-12-30T19:16:32.000Z</time></trkpt>
        <trkpt lat="29.0082286" lon="104.7742614"><ele>289.57</ele><time>2025-12-30T19:17:03.000Z</time></trkpt>
        <trkpt lat="29.0082286" lon="104.7742614"><ele>289.57</ele><time>2025-12-30T19:18:00.000Z</time></trkpt>
        <trkpt lat="29.0082286" lon="104.7742614"><ele>289.57</ele><time>2025-12-30T19:18:14.000Z</time></trkpt>
        <trkpt lat="29.0082286" lon="104.7742614"><ele>289.57</ele><time>2025-12-30T19:18:32.000Z</time></trkpt>
        <trkpt lat="29.0086376" lon="104.7740289"><ele>293.35</ele><time>2025-12-30T19:18:38.000Z</time></trkpt>
        <trkpt lat="29.0086376" lon="104.7740289"><ele>293.35</ele><time>2025-12-30T19:18:39.000Z</time></trkpt>
        <trkpt lat="29.0090873" lon="104.7739947"><ele>293.08</ele><time>2025-12-30T19:19:53.000Z</time></trkpt>
        <trkpt lat="29.0095192" lon="104.773841"><ele>296.69</ele><time>2025-12-30T19:21:03.000Z</time></trkpt>
        <trkpt lat="29.0099636" lon="104.7737599"><ele>300.77</ele><time>2025-12-30T19:22:15.000Z</time></trkpt>
        <trkpt lat="29.0104138" lon="104.7738019"><ele>303.8</ele><time>2025-12-30T19:23:33.000Z</time></trkpt>
        <trkpt lat="29.0104138" lon="104.7738019"><ele>303.8</ele><time>2025-12-30T19:24:06.000Z</time></trkpt>
        <trkpt lat="29.0104138" lon="104.7738019"><ele>303.8</ele><time>2025-12-30T19:24:14.000Z</time></trkpt>
        <trkpt lat="29.0104138" lon="104.7738019"><ele>303.8</ele><time>2025-12-30T19:25:00.000Z</time></trkpt>
        <trkpt lat="29.0104138" lon="104.7738019"><ele>303.8</ele><time>2025-12-30T19:25:08.000Z</time></trkpt>
        <trkpt lat="29.0104138" lon="104.7738019"><ele>303.8</ele><time>2025-12-30T19:25:22.000Z</time></trkpt>
        <trkpt lat="29.0104138" lon="104.7738019"><ele>303.8</ele><time>2025-12-30T19:25:24.000Z</time></trkpt>
        <trkpt lat="29.0104138" lon="104.7738019"><ele>303.8</ele><time>2025-12-30T19:27:02.000Z</time></trkpt>
        <trkpt lat="29.0108499" lon="104.7739277"><ele>304.22</ele><time>2025-12-30T19:27:06.000Z</time></trkpt>
        <trkpt lat="29.0108499" lon="104.7739277"><ele>304.22</ele><time>2025-12-30T19:28:23.000Z</time></trkpt>
        <trkpt lat="29.0108499" lon="104.7739277"><ele>304.22</ele><time>2025-12-30T19:29:34.000Z</time></trkpt>
        <trkpt lat="29.0111994" lon="104.7742716"><ele>301.23</ele><time>2025-12-30T19:29:40.000Z</time></trkpt>
        <trkpt lat="29.0111994" lon="104.7742716"><ele>301.23</ele><time>2025-12-30T19:31:23.000Z</time></trkpt>
        <trkpt lat="29.0111994" lon="104.7742716"><ele>301.23</ele><time>2025-12-30T19:32:38.000Z</time></trkpt>
        <trkpt lat="29.0111994" lon="104.7742716"><ele>301.23</ele><time>2025-12-30T19:32:46.000Z</time></trkpt>
        <trkpt lat="29.0111994" lon="104.7742716"><ele>301.23</ele><time>2025-12-30T19:33:28.000Z</time></trkpt>
        <trkpt lat="29.0111994" lon="104.7742716"><ele>301.23</ele><time>2025-12-30T19:33:42.000Z</time></trkpt>
        <trkpt lat="29.0111994" lon="104.7742716"><ele>301.23</ele><time>2025-12-30T19:34:02.000Z</time></trkpt>
        <trkpt lat="29.0111994" lon="104.7742716"><ele>301.23</ele><time>2025-12-30T19:34:24.000Z</time></trkpt>
        <trkpt lat="29.0111994" lon="104.7742716"><ele>301.23</ele><time>2025-12-30T19:34:40.000Z</time></trkpt>
        <trkpt lat="29.0116461" lon="104.7741509"><ele>294.07</ele><time>2025-12-30T19:34:50.000Z</time></trkpt>
        <trkpt lat="29.0116461" lon="104.7741509"><ele>294.07</ele><time>2025-12-30T19:35:11.000Z</time></trkpt>
        <trkpt lat="29.0116461" lon="104.7741509"><ele>294.07</ele><time>2025-12-30T19:36:02.000Z</time></trkpt>
        <trkpt lat="29.0119977" lon="104.7737948"><ele>287.18</ele><time>2025-12-30T19:36:28.000Z</time></trkpt>
        <trkpt lat="29.0119977" lon="104.7737948"><ele>287.18</ele><time>2025-12-30T19:36:49.000Z</time></trkpt>
        <trkpt lat="29.0119977" lon="104.7737948"><ele>287.18</ele><time>2025-12-30T19:37:50.000Z</time></trkpt>
        <trkpt lat="29.0119977" lon="104.7737948"><ele>287.18</ele><time>2025-12-30T19:38:12.000Z</time></trkpt>
        <trkpt lat="29.0119977" lon="104.7737948"><ele>287.18</ele><time>2025-12-30T19:38:32.000Z</time></trkpt>
        <trkpt lat="29.0119977" lon="104.7737948"><ele>287.18</ele><time>2025-12-30T19:38:36.000Z</time></trkpt>
        <trkpt lat="29.0119977" lon="104.7737948"><ele>287.18</ele><time>2025-12-30T19:38:50.000Z</time></trkpt>
        <trkpt lat="29.0119977" lon="104.7737948"><ele>287.18</ele><time>2025-12-30T19:38:58.000Z</time></trkpt>
        <trkpt lat="29.0119977" lon="104.7737948"><ele>287.18</ele><time>2025-12-30T19:39:12.000Z</time></trkpt>
        <trkpt lat="29.0119977" lon="104.7737948"><ele>287.18</ele><time>2025-12-30T19:39:42.000Z</time></trkpt>
        <trkpt lat="29.0119977" lon="104.7737948"><ele>287.18</ele><time>2025-12-30T19:40:22.000Z</time></trkpt>
        <trkpt lat="29.0119977" lon="104.7737948"><ele>287.18</ele><time>2025-12-30T19:40:32.000Z</time></trkpt>
        <trkpt lat="29.0119977" lon="104.7737948"><ele>287.18</ele><time>2025-12-30T19:40:48.000Z</time></trkpt>
        <trkpt lat="29.0119977" lon="104.7737948"><ele>287.18</ele><time>2025-12-30T19:40:58.000Z</time></trkpt>
        <trkpt lat="29.0119977" lon="104.7737948"><ele>287.18</ele><time>2025-12-30T19:41:18.000Z</time></trkpt>
        <trkpt lat="29.0119977" lon="104.7737948"><ele>287.18</ele><time>2025-12-30T19:41:26.000Z</time></trkpt>
        <trkpt lat="29.0119977" lon="104.7737948"><ele>287.18</ele><time>2025-12-30T19:42:50.000Z</time></trkpt>
        <trkpt lat="29.0119977" lon="104.7737948"><ele>287.18</ele><time>2025-12-30T19:42:52.000Z</time></trkpt>
        <trkpt lat="29.0119977" lon="104.7737948"><ele>287.18</ele><time>2025-12-30T19:43:06.000Z</time></trkpt>
        <trkpt lat="29.0119977" lon="104.7737948"><ele>287.18</ele><time>2025-12-30T19:43:14.000Z</time></trkpt>
        <trkpt lat="29.0119977" lon="104.7737948"><ele>287.18</ele><time>2025-12-30T19:43:56.000Z</time></trkpt>
        <trkpt lat="29.0119977" lon="104.7737948"><ele>287.18</ele><time>2025-12-30T19:53:58.000Z</time></trkpt>
        <trkpt lat="29.0119977" lon="104.7737948"><ele>287.18</ele><time>2025-12-30T19:54:12.000Z</time></trkpt>
        <trkpt lat="29.0128015" lon="104.7738223"><ele>281.39</ele><time>2025-12-30T19:55:08.000Z</time></trkpt>
        <trkpt lat="29.0128015" lon="104.7738223"><ele>281.39</ele><time>2025-12-30T19:55:49.000Z</time></trkpt>
        <trkpt lat="29.0128015" lon="104.7738223"><ele>281.39</ele><time>2025-12-30T19:57:02.000Z</time></trkpt>
        <trkpt lat="29.0129019" lon="104.7743256"><ele>277.61</ele><time>2025-12-30T19:57:04.000Z</time></trkpt>
        <trkpt lat="29.0129019" lon="104.7743256"><ele>277.61</ele><time>2025-12-30T19:57:25.000Z</time></trkpt>
        <trkpt lat="29.0129019" lon="104.7743256"><ele>277.61</ele><time>2025-12-30T19:57:30.000Z</time></trkpt>
        <trkpt lat="29.0129019" lon="104.7743256"><ele>277.61</ele><time>2025-12-30T19:57:32.000Z</time></trkpt>
        <trkpt lat="29.0129019" lon="104.7743256"><ele>277.61</ele><time>2025-12-30T19:57:52.000Z</time></trkpt>
        <trkpt lat="29.0131148" lon="104.7747995"><ele>276.16</ele><time>2025-12-30T19:57:54.000Z</time></trkpt>
        <trkpt lat="29.0131148" lon="104.7747995"><ele>276.16</ele><time>2025-12-30T19:58:41.000Z</time></trkpt>
        <trkpt lat="29.0131148" lon="104.7747995"><ele>276.16</ele><time>2025-12-30T19:58:58.000Z</time></trkpt>
        <trkpt lat="29.0131148" lon="104.7747995"><ele>276.16</ele><time>2025-12-30T19:59:08.000Z</time></trkpt>
        <trkpt lat="29.0131148" lon="104.7747995"><ele>276.16</ele><time>2025-12-30T19:59:24.000Z</time></trkpt>
        <trkpt lat="29.013228" lon="104.7753693"><ele>270.64</ele><time>2025-12-30T19:59:46.000Z</time></trkpt>
        <trkpt lat="29.013228" lon="104.7753693"><ele>270.64</ele><time>2025-12-30T20:01:11.000Z</time></trkpt>
        <trkpt lat="29.013228" lon="104.7753693"><ele>270.64</ele><time>2025-12-30T20:01:36.000Z</time></trkpt>
        <trkpt lat="29.013228" lon="104.7753693"><ele>270.64</ele><time>2025-12-30T20:01:38.000Z</time></trkpt>
        <trkpt lat="29.013228" lon="104.7753693"><ele>270.64</ele><time>2025-12-30T20:02:12.000Z</time></trkpt>
        <trkpt lat="29.0130258" lon="104.7758363"><ele>265.93</ele><time>2025-12-30T20:02:14.000Z</time></trkpt>
        <trkpt lat="29.0130258" lon="104.7758363"><ele>265.93</ele><time>2025-12-30T20:02:33.000Z</time></trkpt>
        <trkpt lat="29.0132049" lon="104.7763238"><ele>263.8</ele><time>2025-12-30T20:03:33.000Z</time></trkpt>
        <trkpt lat="29.0134046" lon="104.7767921"><ele>264.73</ele><time>2025-12-30T20:04:19.000Z</time></trkpt>
        <trkpt lat="29.0137436" lon="104.7771376"><ele>264.16</ele><time>2025-12-30T20:05:03.000Z</time></trkpt>
        <trkpt lat="29.0140571" lon="104.7775111"><ele>265.08</ele><time>2025-12-30T20:05:51.000Z</time></trkpt>
        <trkpt lat="29.0144851" lon="104.7776857"><ele>266.46</ele><time>2025-12-30T20:06:43.000Z</time></trkpt>
        <trkpt lat="29.0148841" lon="104.7779569"><ele>269.08</ele><time>2025-12-30T20:07:49.000Z</time></trkpt>
        <trkpt lat="29.015191" lon="104.7783481"><ele>278.07</ele><time>2025-12-30T20:08:41.000Z</time></trkpt>
        <trkpt lat="29.0154947" lon="104.7784297"><ele>280.89</ele><time>2025-12-30T20:09:27.000Z</time></trkpt>
        <trkpt lat="29.0158464" lon="104.778705"><ele>280.74</ele><time>2025-12-30T20:11:03.000Z</time></trkpt>
        <trkpt lat="29.0162755" lon="104.7788825"><ele>288.96</ele><time>2025-12-30T20:12:09.000Z</time></trkpt>
        <trkpt lat="29.0165155" lon="104.7791262"><ele>294.76</ele><time>2025-12-30T20:12:43.000Z</time></trkpt>
        <trkpt lat="29.0165155" lon="104.7791262"><ele>294.76</ele><time>2025-12-30T20:12:58.000Z</time></trkpt>
        <trkpt lat="29.0165155" lon="104.7791262"><ele>294.76</ele><time>2025-12-30T20:13:10.000Z</time></trkpt>
        <trkpt lat="29.0165155" lon="104.7791262"><ele>294.76</ele><time>2025-12-30T20:13:46.000Z</time></trkpt>
        <trkpt lat="29.0165155" lon="104.7791262"><ele>294.76</ele><time>2025-12-30T20:13:50.000Z</time></trkpt>
        <trkpt lat="29.0165155" lon="104.7791262"><ele>294.76</ele><time>2025-12-30T20:14:20.000Z</time></trkpt>
        <trkpt lat="29.0165155" lon="104.7791262"><ele>294.76</ele><time>2025-12-30T20:14:22.000Z</time></trkpt>
        <trkpt lat="29.0165155" lon="104.7791262"><ele>294.76</ele><time>2025-12-30T20:14:40.000Z</time></trkpt>
        <trkpt lat="29.0165155" lon="104.7791262"><ele>294.76</ele><time>2025-12-30T20:14:58.000Z</time></trkpt>
        <trkpt lat="29.0165155" lon="104.7791262"><ele>294.76</ele><time>2025-12-30T20:15:46.000Z</time></trkpt>
        <trkpt lat="29.0167738" lon="104.7795708"><ele>299.59</ele><time>2025-12-30T20:15:52.000Z</time></trkpt>
        <trkpt lat="29.0167738" lon="104.7795708"><ele>299.59</ele><time>2025-12-30T20:17:33.000Z</time></trkpt>
        <trkpt lat="29.0170181" lon="104.7797547"><ele>303.67</ele><time>2025-12-30T20:18:07.000Z</time></trkpt>
        <trkpt lat="29.0170181" lon="104.7797547"><ele>303.67</ele><time>2025-12-30T20:18:54.000Z</time></trkpt>
        <trkpt lat="29.0174511" lon="104.7796133"><ele>307.85</ele><time>2025-12-30T20:18:56.000Z</time></trkpt>
        <trkpt lat="29.0174511" lon="104.7796133"><ele>307.85</ele><time>2025-12-30T20:19:33.000Z</time></trkpt>
        <trkpt lat="29.0178343" lon="104.7793329"><ele>308.6</ele><time>2025-12-30T20:20:39.000Z</time></trkpt>
        <trkpt lat="29.0178901" lon="104.7788187"><ele>308.4</ele><time>2025-12-30T20:21:23.000Z</time></trkpt>
        <trkpt lat="29.017759" lon="104.7783221"><ele>306.16</ele><time>2025-12-30T20:22:25.000Z</time></trkpt>
        <trkpt lat="29.0182101" lon="104.7784076"><ele>305.69</ele><time>2025-12-30T20:24:13.000Z</time></trkpt>
        <trkpt lat="29.0186088" lon="104.7781584"><ele>308.4</ele><time>2025-12-30T20:24:57.000Z</time></trkpt>
        <trkpt lat="29.0188136" lon="104.7779369"><ele>311.53</ele><time>2025-12-30T20:26:07.000Z</time></trkpt>
        <trkpt lat="29.0183761" lon="104.7778203"><ele>316.11</ele><time>2025-12-30T20:27:17.000Z</time></trkpt>
        <trkpt lat="29.018317" lon="104.7773034"><ele>312.91</ele><time>2025-12-30T20:28:05.000Z</time></trkpt>
        <trkpt lat="29.0185513" lon="104.7768885"><ele>310.01</ele><time>2025-12-30T20:28:49.000Z</time></trkpt>
        <trkpt lat="29.0186872" lon="104.7765375"><ele>307.3</ele><time>2025-12-30T20:29:23.000Z</time></trkpt>
        <trkpt lat="29.0186872" lon="104.7765375"><ele>307.3</ele><time>2025-12-30T20:29:32.000Z</time></trkpt>
        <trkpt lat="29.0186075" lon="104.7760961"><ele>306.1</ele><time>2025-12-30T20:29:38.000Z</time></trkpt>
        <trkpt lat="29.0186075" lon="104.7760961"><ele>306.1</ele><time>2025-12-30T20:30:19.000Z</time></trkpt>
        <trkpt lat="29.0185027" lon="104.7759211"><ele>302.87</ele><time>2025-12-30T20:30:35.000Z</time></trkpt>
        <trkpt lat="29.0185027" lon="104.7759211"><ele>302.87</ele><time>2025-12-30T20:31:06.000Z</time></trkpt>
        <trkpt lat="29.0180524" lon="104.7762345"><ele>302.66</ele><time>2025-12-30T20:31:28.000Z</time></trkpt>
        <trkpt lat="29.0180524" lon="104.7762345"><ele>302.66</ele><time>2025-12-30T20:31:59.000Z</time></trkpt>
        <trkpt lat="29.0177317" lon="104.7758626"><ele>298.72</ele><time>2025-12-30T20:33:15.000Z</time></trkpt>
        <trkpt lat="29.0175393" lon="104.7753952"><ele>296.27</ele><time>2025-12-30T20:34:25.000Z</time></trkpt>
        <trkpt lat="29.0172166" lon="104.7750184"><ele>293.12</ele><time>2025-12-30T20:35:15.000Z</time></trkpt>
        <trkpt lat="29.0168215" lon="104.7747445"><ele>288.45</ele><time>2025-12-30T20:35:59.000Z</time></trkpt>
        <trkpt lat="29.0163707" lon="104.7746937"><ele>285.98</ele><time>2025-12-30T20:36:45.000Z</time></trkpt>
        <trkpt lat="29.0159132" lon="104.7747385"><ele>282.76</ele><time>2025-12-30T20:37:31.000Z</time></trkpt>
        <trkpt lat="29.0154542" lon="104.7747901"><ele>278.8</ele><time>2025-12-30T20:38:13.000Z</time></trkpt>
        <trkpt lat="29.0151075" lon="104.7745308"><ele>273.92</ele><time>2025-12-30T20:39:11.000Z</time></trkpt>
        <trkpt lat="29.0150255" lon="104.7740496"><ele>267.95</ele><time>2025-12-30T20:39:59.000Z</time></trkpt>
        <trkpt lat="29.0147885" lon="104.7735779"><ele>263.98</ele><time>2025-12-30T20:41:07.000Z</time></trkpt>
        <trkpt lat="29.0143284" lon="104.7736324"><ele>260.87</ele><time>2025-12-30T20:41:55.000Z</time></trkpt>
        <trkpt lat="29.0140591" lon="104.7740207"><ele>259.58</ele><time>2025-12-30T20:42:47.000Z</time></trkpt>
        <trkpt lat="29.0139969" lon="104.7741343"><ele>256.96</ele><time>2025-12-30T20:42:53.000Z</time></trkpt>
        <trkpt lat="29.0139969" lon="104.7741343"><ele>256.96</ele><time>2025-12-30T20:43:12.000Z</time></trkpt>
        <trkpt lat="29.0139598" lon="104.7746003"><ele>255.48</ele><time>2025-12-30T20:43:50.000Z</time></trkpt>
        <trkpt lat="29.0139598" lon="104.7746003"><ele>255.48</ele><time>2025-12-30T20:44:39.000Z</time></trkpt>
        <trkpt lat="29.0139178" lon="104.7746573"><ele>254.86</ele><time>2025-12-30T20:44:51.000Z</time></trkpt>
        <trkpt lat="29.0140469" lon="104.7742588"><ele>253.74</ele><time>2025-12-30T20:45:43.000Z</time></trkpt>
        <trkpt lat="29.0142065" lon="104.7737768"><ele>253.38</ele><time>2025-12-30T20:46:29.000Z</time></trkpt>
        <trkpt lat="29.014339" lon="104.7735027"><ele>253.25</ele><time>2025-12-30T20:46:59.000Z</time></trkpt>
        <trkpt lat="29.014339" lon="104.7735027"><ele>253.25</ele><time>2025-12-30T20:47:34.000Z</time></trkpt>
        <trkpt lat="29.0141012" lon="104.7730916"><ele>253.94</ele><time>2025-12-30T20:48:00.000Z</time></trkpt>
        <trkpt lat="29.0141012" lon="104.7730916"><ele>253.94</ele><time>2025-12-30T20:48:33.000Z</time></trkpt>
        <trkpt lat="29.0138112" lon="104.7730302"><ele>255.02</ele><time>2025-12-30T20:49:03.000Z</time></trkpt>
        <trkpt lat="29.0138112" lon="104.7730302"><ele>255.02</ele><time>2025-12-30T20:49:16.000Z</time></trkpt>
        <trkpt lat="29.0138112" lon="104.7730302"><ele>255.02</ele><time>2025-12-30T20:49:54.000Z</time></trkpt>
        <trkpt lat="29.0138112" lon="104.7730302"><ele>255.02</ele><time>2025-12-30T20:50:22.000Z</time></trkpt>
        <trkpt lat="29.0138112" lon="104.7730302"><ele>255.02</ele><time>2025-12-30T20:50:40.000Z</time></trkpt>
        <trkpt lat="29.0138112" lon="104.7730302"><ele>255.02</ele><time>2025-12-30T20:50:56.000Z</time></trkpt>
        <trkpt lat="29.0138112" lon="104.7730302"><ele>255.02</ele><time>2025-12-30T20:50:58.000Z</time></trkpt>
        <trkpt lat="29.0138112" lon="104.7730302"><ele>255.02</ele><time>2025-12-30T20:51:30.000Z</time></trkpt>
        <trkpt lat="29.0138112" lon="104.7730302"><ele>255.02</ele><time>2025-12-30T20:51:32.000Z</time></trkpt>
        <trkpt lat="29.0138112" lon="104.7730302"><ele>255.02</ele><time>2025-12-30T20:51:48.000Z</time></trkpt>
        <trkpt lat="29.0138112" lon="104.7730302"><ele>255.02</ele><time>2025-12-30T20:52:34.000Z</time></trkpt>
        <trkpt lat="29.0138112" lon="104.7730302"><ele>255.02</ele><time>2025-12-30T20:52:52.000Z</time></trkpt>
        <trkpt lat="29.0138112" lon="104.7730302"><ele>255.02</ele><time>2025-12-30T20:53:10.000Z</time></trkpt>
        <trkpt lat="29.0138112" lon="104.7730302"><ele>255.02</ele><time>2025-12-30T20:53:26.000Z</time></trkpt>
        <trkpt lat="29.0133885" lon="104.7728342"><ele>255.43</ele><time>2025-12-30T20:53:44.000Z</time></trkpt>
        <trkpt lat="29.0133885" lon="104.7728342"><ele>255.43</ele><time>2025-12-30T20:54:25.000Z</time></trkpt>
        <trkpt lat="29.0129565" lon="104.7726499"><ele>251.6</ele><time>2025-12-30T20:55:09.000Z</time></trkpt>
        <trkpt lat="29.0127844" lon="104.7725908"><ele>252.5</ele><time>2025-12-30T20:55:23.000Z</time></trkpt>
        <trkpt lat="29.0127844" lon="104.7725908"><ele>252.5</ele><time>2025-12-30T20:56:10.000Z</time></trkpt>
        <trkpt lat="29.0123895" lon="104.7727165"><ele>254.1</ele><time>2025-12-30T20:56:40.000Z</time></trkpt>
        <trkpt lat="29.0123895" lon="104.7727165"><ele>254.1</ele><time>2025-12-30T20:57:33.000Z</time></trkpt>
        <trkpt lat="29.0119225" lon="104.7727782"><ele>259.69</ele><time>2025-12-30T20:58:35.000Z</time></trkpt>
        <trkpt lat="29.0116969" lon="104.7727127"><ele>262.41</ele><time>2025-12-30T20:59:05.000Z</time></trkpt>
        <trkpt lat="29.0116969" lon="104.7727127"><ele>262.41</ele><time>2025-12-30T20:59:42.000Z</time></trkpt>
        <trkpt lat="29.0113071" lon="104.7724558"><ele>262.06</ele><time>2025-12-30T20:59:54.000Z</time></trkpt>
        <trkpt lat="29.0113071" lon="104.7724558"><ele>262.06</ele><time>2025-12-30T21:00:31.000Z</time></trkpt>
        <trkpt lat="29.0112785" lon="104.7723832"><ele>260.94</ele><time>2025-12-30T21:00:41.000Z</time></trkpt>
        <trkpt lat="29.0112785" lon="104.7723832"><ele>260.94</ele><time>2025-12-30T21:01:40.000Z</time></trkpt>
        <trkpt lat="29.0108265" lon="104.7723339"><ele>259.69</ele><time>2025-12-30T21:01:50.000Z</time></trkpt>
        <trkpt lat="29.0108265" lon="104.7723339"><ele>259.69</ele><time>2025-12-30T21:02:19.000Z</time></trkpt>
        <trkpt lat="29.0103798" lon="104.7724606"><ele>261.87</ele><time>2025-12-30T21:03:03.000Z</time></trkpt>
        <trkpt lat="29.0099349" lon="104.7726057"><ele>260.26</ele><time>2025-12-30T21:03:59.000Z</time></trkpt>
        <trkpt lat="29.009565" lon="104.7727984"><ele>263.25</ele><time>2025-12-30T21:04:47.000Z</time></trkpt>
        <trkpt lat="29.009565" lon="104.7727984"><ele>263.25</ele><time>2025-12-30T21:05:02.000Z</time></trkpt>
        <trkpt lat="29.009565" lon="104.7727984"><ele>263.25</ele><time>2025-12-30T21:06:54.000Z</time></trkpt>
        <trkpt lat="29.009565" lon="104.7727984"><ele>263.25</ele><time>2025-12-30T21:07:28.000Z</time></trkpt>
        <trkpt lat="29.0091668" lon="104.7730215"><ele>265.09</ele><time>2025-12-30T21:07:34.000Z</time></trkpt>
        <trkpt lat="29.0091668" lon="104.7730215"><ele>265.09</ele><time>2025-12-30T21:08:09.000Z</time></trkpt>
        <trkpt lat="29.008896" lon="104.7725955"><ele>264.51</ele><time>2025-12-30T21:09:43.000Z</time></trkpt>
        <trkpt lat="29.0088187" lon="104.7723319"><ele>260.9</ele><time>2025-12-30T21:10:09.000Z</time></trkpt>
        <trkpt lat="29.0084161" lon="104.7722319"><ele>260.37</ele><time>2025-12-30T21:11:07.000Z</time></trkpt>
        <trkpt lat="29.008155" lon="104.772068"><ele>263.68</ele><time>2025-12-30T21:11:35.000Z</time></trkpt>
        <trkpt lat="29.008155" lon="104.772068"><ele>263.68</ele><time>2025-12-30T21:11:42.000Z</time></trkpt>
        <trkpt lat="29.0081069" lon="104.7715481"><ele>263.75</ele><time>2025-12-30T21:11:48.000Z</time></trkpt>
        <trkpt lat="29.0081069" lon="104.7715481"><ele>263.75</ele><time>2025-12-30T21:12:57.000Z</time></trkpt>
        <trkpt lat="29.0078752" lon="104.7711017"><ele>261.4</ele><time>2025-12-30T21:14:21.000Z</time></trkpt>
        <trkpt lat="29.0078752" lon="104.7711017"><ele>261.4</ele><time>2025-12-30T21:15:08.000Z</time></trkpt>
        <trkpt lat="29.007577" lon="104.7707081"><ele>261.38</ele><time>2025-12-30T21:15:16.000Z</time></trkpt>
        <trkpt lat="29.007577" lon="104.7707081"><ele>261.38</ele><time>2025-12-30T21:15:33.000Z</time></trkpt>
        <trkpt lat="29.007577" lon="104.7707081"><ele>261.38</ele><time>2025-12-30T21:17:10.000Z</time></trkpt>
        <trkpt lat="29.0074381" lon="104.7702129"><ele>260.69</ele><time>2025-12-30T21:17:14.000Z</time></trkpt>
        <trkpt lat="29.0074381" lon="104.7702129"><ele>260.69</ele><time>2025-12-30T21:18:01.000Z</time></trkpt>
        <trkpt lat="29.0073653" lon="104.77033"><ele>262.41</ele><time>2025-12-30T21:18:27.000Z</time></trkpt>
        <trkpt lat="29.0073653" lon="104.77033"><ele>262.41</ele><time>2025-12-30T21:19:36.000Z</time></trkpt>
        <trkpt lat="29.0069333" lon="104.7701706"><ele>261.49</ele><time>2025-12-30T21:21:00.000Z</time></trkpt>
        <trkpt lat="29.0069333" lon="104.7701706"><ele>261.49</ele><time>2025-12-30T21:21:17.000Z</time></trkpt>
        <trkpt lat="29.0064818" lon="104.7701929"><ele>263.43</ele><time>2025-12-30T21:22:15.000Z</time></trkpt>
        <trkpt lat="29.0060359" lon="104.7702954"><ele>263.92</ele><time>2025-12-30T21:23:45.000Z</time></trkpt>
        <trkpt lat="29.0060359" lon="104.7702954"><ele>263.92</ele><time>2025-12-30T21:24:04.000Z</time></trkpt>
        <trkpt lat="29.0060359" lon="104.7702954"><ele>263.92</ele><time>2025-12-30T21:24:08.000Z</time></trkpt>
        <trkpt lat="29.0060359" lon="104.7702954"><ele>263.92</ele><time>2025-12-30T21:24:46.000Z</time></trkpt>
        <trkpt lat="29.0060359" lon="104.7702954"><ele>263.92</ele><time>2025-12-30T21:25:10.000Z</time></trkpt>
        <trkpt lat="29.0060359" lon="104.7702954"><ele>263.92</ele><time>2025-12-30T21:25:26.000Z</time></trkpt>
        <trkpt lat="29.0060359" lon="104.7702954"><ele>263.92</ele><time>2025-12-30T21:25:58.000Z</time></trkpt>
        <trkpt lat="29.0060359" lon="104.7702954"><ele>263.92</ele><time>2025-12-30T21:26:32.000Z</time></trkpt>
        <trkpt lat="29.0055908" lon="104.770435"><ele>263.74</ele><time>2025-12-30T21:26:34.000Z</time></trkpt>
        <trkpt lat="29.0055908" lon="104.770435"><ele>263.74</ele><time>2025-12-30T21:27:41.000Z</time></trkpt>
        <trkpt lat="29.0055908" lon="104.770435"><ele>263.74</ele><time>2025-12-30T21:28:58.000Z</time></trkpt>
        <trkpt lat="29.0052279" lon="104.7707458"><ele>261.21</ele><time>2025-12-30T21:29:04.000Z</time></trkpt>
        <trkpt lat="29.0052279" lon="104.7707458"><ele>261.21</ele><time>2025-12-30T21:31:11.000Z</time></trkpt>
        <trkpt lat="29.0047935" lon="104.7709263"><ele>271.58</ele><time>2025-12-30T21:32:17.000Z</time></trkpt>
        <trkpt lat="29.0047935" lon="104.7709263"><ele>271.58</ele><time>2025-12-30T21:34:10.000Z</time></trkpt>
        <trkpt lat="29.0047935" lon="104.7709263"><ele>271.58</ele><time>2025-12-30T21:34:18.000Z</time></trkpt>
        <trkpt lat="29.0047935" lon="104.7709263"><ele>271.58</ele><time>2025-12-30T21:35:08.000Z</time></trkpt>
        <trkpt lat="29.0048771" lon="104.7714398"><ele>279.23</ele><time>2025-12-30T21:35:14.000Z</time></trkpt>
        <trkpt lat="29.0048771" lon="104.7714398"><ele>279.23</ele><time>2025-12-30T21:35:47.000Z</time></trkpt>
        <trkpt lat="29.0048771" lon="104.7714398"><ele>279.23</ele><time>2025-12-30T21:37:46.000Z</time></trkpt>
        <trkpt lat="29.0049076" lon="104.771954"><ele>288.82</ele><time>2025-12-30T21:38:28.000Z</time></trkpt>
        <trkpt lat="29.0049076" lon="104.771954"><ele>288.82</ele><time>2025-12-30T21:43:01.000Z</time></trkpt>
        <trkpt lat="29.0048983" lon="104.7724701"><ele>306.99</ele><time>2025-12-30T21:46:13.000Z</time></trkpt>
        <trkpt lat="29.0045618" lon="104.7728171"><ele>327.47</ele><time>2025-12-30T21:47:19.000Z</time></trkpt>
        <trkpt lat="29.0049258" lon="104.7731465"><ele>340.01</ele><time>2025-12-30T21:48:29.000Z</time></trkpt>
        <trkpt lat="29.0049258" lon="104.7731465"><ele>340.01</ele><time>2025-12-30T21:49:16.000Z</time></trkpt>
        <trkpt lat="29.0049168" lon="104.7736629"><ele>350.3</ele><time>2025-12-30T21:49:24.000Z</time></trkpt>
        <trkpt lat="29.0049168" lon="104.7736629"><ele>350.3</ele><time>2025-12-30T21:50:31.000Z</time></trkpt>
        <trkpt lat="29.0049168" lon="104.7736629"><ele>350.3</ele><time>2025-12-30T21:51:40.000Z</time></trkpt>
        <trkpt lat="29.0047465" lon="104.774142"><ele>355.01</ele><time>2025-12-30T21:51:48.000Z</time></trkpt>
        <trkpt lat="29.0047465" lon="104.774142"><ele>355.01</ele><time>2025-12-30T21:52:13.000Z</time></trkpt>
        <trkpt lat="29.0047465" lon="104.774142"><ele>355.01</ele><time>2025-12-30T21:53:32.000Z</time></trkpt>
        <trkpt lat="29.0047465" lon="104.774142"><ele>355.01</ele><time>2025-12-30T21:53:36.000Z</time></trkpt>
        <trkpt lat="29.0047465" lon="104.774142"><ele>355.01</ele><time>2025-12-30T21:53:54.000Z</time></trkpt>
        <trkpt lat="29.0049953" lon="104.774588"><ele>353.83</ele><time>2025-12-30T21:54:34.000Z</time></trkpt>
        <trkpt lat="29.0049953" lon="104.774588"><ele>353.83</ele><time>2025-12-30T21:54:59.000Z</time></trkpt>
        <trkpt lat="29.0049039" lon="104.7747186"><ele>353.08</ele><time>2025-12-30T21:55:23.000Z</time></trkpt>
        <trkpt lat="29.0049039" lon="104.7747186"><ele>353.08</ele><time>2025-12-30T21:55:38.000Z</time></trkpt>
        <trkpt lat="29.0049039" lon="104.7747186"><ele>353.08</ele><time>2025-12-30T21:55:42.000Z</time></trkpt>
        <trkpt lat="29.0049039" lon="104.7747186"><ele>353.08</ele><time>2025-12-30T21:56:14.000Z</time></trkpt>
        <trkpt lat="29.0049039" lon="104.7747186"><ele>353.08</ele><time>2025-12-30T21:56:18.000Z</time></trkpt>
        <trkpt lat="29.0049039" lon="104.7747186"><ele>353.08</ele><time>2025-12-30T21:57:36.000Z</time></trkpt>
        <trkpt lat="29.0049039" lon="104.7747186"><ele>353.08</ele><time>2025-12-30T21:57:40.000Z</time></trkpt>
        <trkpt lat="29.0049039" lon="104.7747186"><ele>353.08</ele><time>2025-12-30T21:58:42.000Z</time></trkpt>
        <trkpt lat="29.0051351" lon="104.775166"><ele>352.99</ele><time>2025-12-30T21:58:44.000Z</time></trkpt>
        <trkpt lat="29.0051351" lon="104.775166"><ele>352.99</ele><time>2025-12-30T21:59:43.000Z</time></trkpt>
        <trkpt lat="29.0051351" lon="104.775166"><ele>352.99</ele><time>2025-12-30T22:00:20.000Z</time></trkpt>
        <trkpt lat="29.0051351" lon="104.775166"><ele>352.99</ele><time>2025-12-30T22:00:24.000Z</time></trkpt>
        <trkpt lat="29.0051351" lon="104.775166"><ele>352.99</ele><time>2025-12-30T22:00:48.000Z</time></trkpt>
        <trkpt lat="29.0051351" lon="104.775166"><ele>352.99</ele><time>2025-12-30T22:19:02.000Z</time></trkpt>
        <trkpt lat="29.0051351" lon="104.775166"><ele>352.99</ele><time>2025-12-30T22:19:58.000Z</time></trkpt>
        <trkpt lat="29.0051208" lon="104.7756854"><ele>352.38</ele><time>2025-12-30T22:20:10.000Z</time></trkpt>
        <trkpt lat="29.0051208" lon="104.7756854"><ele>352.38</ele><time>2025-12-30T22:20:33.000Z</time></trkpt>
        <trkpt lat="29.0051997" lon="104.7762033"><ele>351.14</ele><time>2025-12-30T22:21:31.000Z</time></trkpt>
        <trkpt lat="29.0049825" lon="104.7766344"><ele>351.06</ele><time>2025-12-30T22:22:23.000Z</time></trkpt>
        <trkpt lat="29.0049825" lon="104.7766344"><ele>351.06</ele><time>2025-12-30T22:23:40.000Z</time></trkpt>
        <trkpt lat="29.0046435" lon="104.7770245"><ele>351.56</ele><time>2025-12-30T22:23:52.000Z</time></trkpt>
        <trkpt lat="29.0046435" lon="104.7770245"><ele>351.56</ele><time>2025-12-30T22:24:17.000Z</time></trkpt>
        <trkpt lat="29.0046498" lon="104.7770361"><ele>350.34</ele><time>2025-12-30T22:24:21.000Z</time></trkpt>
        <trkpt lat="29.0046498" lon="104.7770361"><ele>350.34</ele><time>2025-12-30T22:24:34.000Z</time></trkpt>
        <trkpt lat="29.0046498" lon="104.7770361"><ele>350.34</ele><time>2025-12-30T22:24:46.000Z</time></trkpt>
        <trkpt lat="29.0046498" lon="104.7770361"><ele>350.34</ele><time>2025-12-30T22:25:18.000Z</time></trkpt>
        <trkpt lat="29.004541" lon="104.7775538"><ele>349.65</ele><time>2025-12-30T22:26:20.000Z</time></trkpt>
        <trkpt lat="29.004541" lon="104.7775538"><ele>349.65</ele><time>2025-12-30T22:28:33.000Z</time></trkpt>
        <trkpt lat="29.0045029" lon="104.7778011"><ele>344.65</ele><time>2025-12-30T22:28:59.000Z</time></trkpt>
        <trkpt lat="29.0043433" lon="104.7782832"><ele>339.17</ele><time>2025-12-30T22:33:23.000Z</time></trkpt>
        <trkpt lat="29.004002" lon="104.7784514"><ele>323.62</ele><time>2025-12-30T22:33:55.000Z</time></trkpt>
        <trkpt lat="29.004002" lon="104.7784514"><ele>323.62</ele><time>2025-12-30T22:34:22.000Z</time></trkpt>
        <trkpt lat="29.004002" lon="104.7784514"><ele>323.62</ele><time>2025-12-30T22:34:24.000Z</time></trkpt>
        <trkpt lat="29.004002" lon="104.7784514"><ele>323.62</ele><time>2025-12-30T22:34:56.000Z</time></trkpt>
        <trkpt lat="29.0037244" lon="104.7788599"><ele>312.9</ele><time>2025-12-30T22:35:20.000Z</time></trkpt>
        <trkpt lat="29.0037244" lon="104.7788599"><ele>312.9</ele><time>2025-12-30T22:35:43.000Z</time></trkpt>
        <trkpt lat="29.0032669" lon="104.7788824"><ele>304.53</ele><time>2025-12-30T22:36:33.000Z</time></trkpt>
        <trkpt lat="29.002886" lon="104.7786283"><ele>298.2</ele><time>2025-12-30T22:37:15.000Z</time></trkpt>
        <trkpt lat="29.0026457" lon="104.7786134"><ele>293.03</ele><time>2025-12-30T22:37:47.000Z</time></trkpt>
        <trkpt lat="29.0022691" lon="104.7787257"><ele>289.03</ele><time>2025-12-30T22:38:35.000Z</time></trkpt>
        <trkpt lat="29.0020862" lon="104.7791175"><ele>286.96</ele><time>2025-12-30T22:39:39.000Z</time></trkpt>
        <trkpt lat="29.0020862" lon="104.7791175"><ele>286.96</ele><time>2025-12-30T22:40:30.000Z</time></trkpt>
        <trkpt lat="29.0025301" lon="104.7792461"><ele>286.13</ele><time>2025-12-30T22:40:44.000Z</time></trkpt>
        <trkpt lat="29.0025301" lon="104.7792461"><ele>286.13</ele><time>2025-12-30T22:41:15.000Z</time></trkpt>
        <trkpt lat="29.0029567" lon="104.7794196"><ele>286.4</ele><time>2025-12-30T22:42:13.000Z</time></trkpt>
        <trkpt lat="29.0029567" lon="104.7794196"><ele>286.4</ele><time>2025-12-30T22:42:28.000Z</time></trkpt>
        <trkpt lat="29.0029567" lon="104.7794196"><ele>286.4</ele><time>2025-12-30T22:43:02.000Z</time></trkpt>
        <trkpt lat="29.0029567" lon="104.7794196"><ele>286.4</ele><time>2025-12-30T22:43:26.000Z</time></trkpt>
        <trkpt lat="29.0033357" lon="104.779729"><ele>286.51</ele><time>2025-12-30T22:43:30.000Z</time></trkpt>
        <trkpt lat="29.0033357" lon="104.779729"><ele>286.51</ele><time>2025-12-30T22:43:47.000Z</time></trkpt>
        <trkpt lat="29.0034378" lon="104.7800093"><ele>287.06</ele><time>2025-12-30T22:44:29.000Z</time></trkpt>
        <trkpt lat="29.0034929" lon="104.7804919"><ele>289.32</ele><time>2025-12-30T22:45:29.000Z</time></trkpt>
        <trkpt lat="29.0039318" lon="104.7806515"><ele>288.22</ele><time>2025-12-30T22:46:41.000Z</time></trkpt>
        <trkpt lat="29.0039318" lon="104.7806515"><ele>288.22</ele><time>2025-12-30T22:47:34.000Z</time></trkpt>
        <trkpt lat="29.0043713" lon="104.7807669"><ele>292.39</ele><time>2025-12-30T22:47:46.000Z</time></trkpt>
        <trkpt lat="29.0043713" lon="104.7807669"><ele>292.39</ele><time>2025-12-30T22:48:13.000Z</time></trkpt>
        <trkpt lat="29.004812" lon="104.7806232"><ele>297.94</ele><time>2025-12-30T22:49:09.000Z</time></trkpt>
        <trkpt lat="29.0052432" lon="104.7804239"><ele>302.8</ele><time>2025-12-30T22:50:21.000Z</time></trkpt>
        <trkpt lat="29.0055052" lon="104.7804973"><ele>303.64</ele><time>2025-12-30T22:50:57.000Z</time></trkpt>
        <trkpt lat="29.0055052" lon="104.7804973"><ele>303.64</ele><time>2025-12-30T22:51:18.000Z</time></trkpt>
        <trkpt lat="29.0053445" lon="104.780987"><ele>304.55</ele><time>2025-12-30T22:51:24.000Z</time></trkpt>
        <trkpt lat="29.0053445" lon="104.780987"><ele>304.55</ele><time>2025-12-30T22:52:13.000Z</time></trkpt>
        <trkpt lat="29.0054543" lon="104.7814868"><ele>305.92</ele><time>2025-12-30T22:53:05.000Z</time></trkpt>
        <trkpt lat="29.0052526" lon="104.7819419"><ele>306.66</ele><time>2025-12-30T22:54:03.000Z</time></trkpt>
        <trkpt lat="29.0050264" lon="104.7824044"><ele>305.9</ele><time>2025-12-30T22:54:45.000Z</time></trkpt>
        <trkpt lat="29.0046132" lon="104.7824542"><ele>306.92</ele><time>2025-12-30T22:55:31.000Z</time></trkpt>
        <trkpt lat="29.0044405" lon="104.7824184"><ele>305.47</ele><time>2025-12-30T22:55:41.000Z</time></trkpt>
        <trkpt lat="29.0044405" lon="104.7824184"><ele>305.47</ele><time>2025-12-30T22:56:16.000Z</time></trkpt>
        <trkpt lat="29.0043288" lon="104.7828034"><ele>304.11</ele><time>2025-12-30T22:56:28.000Z</time></trkpt>
        <trkpt lat="29.0043288" lon="104.7828034"><ele>304.11</ele><time>2025-12-30T22:58:55.000Z</time></trkpt>
        <trkpt lat="29.0043288" lon="104.7828034"><ele>304.11</ele><time>2025-12-30T22:59:22.000Z</time></trkpt>
        <trkpt lat="29.0043288" lon="104.7828034"><ele>304.11</ele><time>2025-12-30T22:59:26.000Z</time></trkpt>
        <trkpt lat="29.0043288" lon="104.7828034"><ele>304.11</ele><time>2025-12-30T22:59:42.000Z</time></trkpt>
        <trkpt lat="29.0043288" lon="104.7828034"><ele>304.11</ele><time>2025-12-30T23:00:00.000Z</time></trkpt>
        <trkpt lat="29.0043288" lon="104.7828034"><ele>304.11</ele><time>2025-12-30T23:01:40.000Z</time></trkpt>
        <trkpt lat="29.0043288" lon="104.7828034"><ele>304.11</ele><time>2025-12-30T23:01:42.000Z</time></trkpt>
        <trkpt lat="29.0043288" lon="104.7828034"><ele>304.11</ele><time>2025-12-30T23:03:42.000Z</time></trkpt>
        <trkpt lat="29.004338" lon="104.7833242"><ele>301.32</ele><time>2025-12-30T23:03:50.000Z</time></trkpt>
        <trkpt lat="29.004338" lon="104.7833242"><ele>301.32</ele><time>2025-12-30T23:03:59.000Z</time></trkpt>
        <trkpt lat="29.0043169" lon="104.7838442"><ele>303.64</ele><time>2025-12-30T23:05:27.000Z</time></trkpt>
        <trkpt lat="29.0043273" lon="104.7840185"><ele>308.31</ele><time>2025-12-30T23:05:55.000Z</time></trkpt>
        <trkpt lat="29.0047664" lon="104.7841381"><ele>311.51</ele><time>2025-12-30T23:08:35.000Z</time></trkpt>
        <trkpt lat="29.0051515" lon="104.7838706"><ele>320.4</ele><time>2025-12-30T23:09:31.000Z</time></trkpt>
        <trkpt lat="29.0055199" lon="104.7841004"><ele>328.67</ele><time>2025-12-30T23:10:25.000Z</time></trkpt>
        <trkpt lat="29.0057332" lon="104.7842656"><ele>334.54</ele><time>2025-12-30T23:10:47.000Z</time></trkpt>
        <trkpt lat="29.0061423" lon="104.7842693"><ele>337.29</ele><time>2025-12-30T23:12:55.000Z</time></trkpt>
        <trkpt lat="29.0065916" lon="104.7842538"><ele>342.32</ele><time>2025-12-30T23:13:57.000Z</time></trkpt>
        <trkpt lat="29.0069505" lon="104.7845891"><ele>347.04</ele><time>2025-12-30T23:14:55.000Z</time></trkpt>
        <trkpt lat="29.0072352" lon="104.785009"><ele>350.9</ele><time>2025-12-30T23:15:55.000Z</time></trkpt>
        <trkpt lat="29.0072653" lon="104.7850385"><ele>350.36</ele><time>2025-12-30T23:16:01.000Z</time></trkpt>
        <trkpt lat="29.0075065" lon="104.7846857"><ele>350.37</ele><time>2025-12-30T23:16:55.000Z</time></trkpt>
        <trkpt lat="29.0075065" lon="104.7846857"><ele>350.37</ele><time>2025-12-30T23:18:02.000Z</time></trkpt>
        <trkpt lat="29.0079319" lon="104.7843531"><ele>352.9</ele><time>2025-12-30T23:18:46.000Z</time></trkpt>
        <trkpt lat="29.0079319" lon="104.7843531"><ele>352.9</ele><time>2025-12-30T23:18:51.000Z</time></trkpt>
        <trkpt lat="29.0079319" lon="104.7843531"><ele>352.9</ele><time>2025-12-30T23:18:55.000Z</time></trkpt>
      </trkseg>
  </trk>
</gpx>